sensor_id;sensor_type;location;lat;lon;timestamp;temperature;humidity
4451;DHT22;2238;50.180;9.230;2023-03-14T00:01:58;10.30;99.90
4451;DHT22;2238;50.180;9.230;2023-03-14T00:04:59;10.40;99.90
4451;DHT22;2238;50.180;9.230;2023-03-14T00:08:00;10.40;99.90
4451;DHT22;2238;50.180;9.230;2023-03-14T00:11:14;10.30;99.90
4451;DHT22;2238;50.180;9.230;2023-03-14T00:14:15;10.30;99.90
4451;DHT22;2238;50.180;9.230;2023-03-14T00:17:17;10.30;99.90
4451;DHT22;2238;50.180;9.230;2023-03-14T00:20:17;10.30;99.90
4451;DHT22;2238;50.180;9.230;2023-03-14T00:23:18;10.30;99.90
4451;DHT22;2238;50.180;9.230;2023-03-14T00:26:20;10.70;99.90
4451;DHT22;2238;50.180;9.230;2023-03-14T00:29:21;10.40;99.90
4451;DHT22;2238;50.180;9.230;2023-03-14T00:32:22;10.40;99.90
4451;DHT22;2238;50.180;9.230;2023-03-14T00:35:22;10.40;99.90
4451;DHT22;2238;50.180;9.230;2023-03-14T00:38:23;10.40;99.90
4451;DHT22;2238;50.180;9.230;2023-03-14T00:41:24;10.30;99.90
4451;DHT22;2238;50.180;9.230;2023-03-14T00:44:25;10.40;99.90
4451;DHT22;2238;50.180;9.230;2023-03-14T00:47:25;10.40;99.90
4451;DHT22;2238;50.180;9.230;2023-03-14T00:50:26;10.30;99.90
4451;DHT22;2238;50.180;9.230;2023-03-14T00:53:26;10.40;99.90
4451;DHT22;2238;50.180;9.230;2023-03-14T00:56:27;10.40;99.90
4451;DHT22;2238;50.180;9.230;2023-03-14T00:59:28;10.30;99.90
4451;DHT22;2238;50.180;9.230;2023-03-14T01:02:28;10.30;99.90
4451;DHT22;2238;50.180;9.230;2023-03-14T01:05:29;10.40;99.90
4451;DHT22;2238;50.180;9.230;2023-03-14T01:08:30;10.40;99.90
4451;DHT22;2238;50.180;9.230;2023-03-14T01:11:32;10.50;99.90
4451;DHT22;2238;50.180;9.230;2023-03-14T01:14:33;10.60;99.90
4451;DHT22;2238;50.180;9.230;2023-03-14T01:17:34;10.30;99.90
4451;DHT22;2238;50.180;9.230;2023-03-14T01:20:36;10.30;99.90
4451;DHT22;2238;50.180;9.230;2023-03-14T01:23:37;10.30;99.90
4451;DHT22;2238;50.180;9.230;2023-03-14T01:26:38;10.30;99.90
4451;DHT22;2238;50.180;9.230;2023-03-14T01:29:39;10.30;99.90
4451;DHT22;2238;50.180;9.230;2023-03-14T01:32:39;10.40;99.90
4451;DHT22;2238;50.180;9.230;2023-03-14T01:35:40;10.30;99.90
4451;DHT22;2238;50.180;9.230;2023-03-14T01:38:41;10.10;99.90
4451;DHT22;2238;50.180;9.230;2023-03-14T01:41:42;10.20;99.90
4451;DHT22;2238;50.180;9.230;2023-03-14T01:44:49;10.20;99.90
4451;DHT22;2238;50.180;9.230;2023-03-14T01:47:50;10.20;99.90
4451;DHT22;2238;50.180;9.230;2023-03-14T01:50:50;10.30;99.90
4451;DHT22;2238;50.180;9.230;2023-03-14T01:53:54;10.20;99.90
4451;DHT22;2238;50.180;9.230;2023-03-14T01:57:15;10.30;99.90
4451;DHT22;2238;50.180;9.230;2023-03-14T02:00:18;10.30;99.90
4451;DHT22;2238;50.180;9.230;2023-03-14T02:03:21;10.30;99.90
4451;DHT22;2238;50.180;9.230;2023-03-14T02:06:27;10.20;99.90
4451;DHT22;2238;50.180;9.230;2023-03-14T02:09:30;10.30;99.90
4451;DHT22;2238;50.180;9.230;2023-03-14T02:12:31;10.40;99.90
4451;DHT22;2238;50.180;9.230;2023-03-14T02:15:33;10.40;99.90
4451;DHT22;2238;50.180;9.230;2023-03-14T02:18:34;10.30;99.90
4451;DHT22;2238;50.180;9.230;2023-03-14T02:21:41;10.40;99.90
4451;DHT22;2238;50.180;9.230;2023-03-14T02:25:08;10.30;99.90
4451;DHT22;2238;50.180;9.230;2023-03-14T02:28:10;10.20;99.90
4451;DHT22;2238;50.180;9.230;2023-03-14T02:31:10;10.30;99.90
4451;DHT22;2238;50.180;9.230;2023-03-14T02:34:11;10.20;99.90
4451;DHT22;2238;50.180;9.230;2023-03-14T02:37:13;10.20;99.90
4451;DHT22;2238;50.180;9.230;2023-03-14T02:40:15;10.30;99.90
4451;DHT22;2238;50.180;9.230;2023-03-14T02:43:16;10.20;99.90
4451;DHT22;2238;50.180;9.230;2023-03-14T02:46:19;10.30;99.90
4451;DHT22;2238;50.180;9.230;2023-03-14T02:49:20;10.20;99.90
4451;DHT22;2238;50.180;9.230;2023-03-14T02:52:21;10.20;99.90
4451;DHT22;2238;50.180;9.230;2023-03-14T02:55:22;10.40;99.90
4451;DHT22;2238;50.180;9.230;2023-03-14T02:58:23;10.30;99.90
4451;DHT22;2238;50.180;9.230;2023-03-14T03:01:24;10.30;99.90
4451;DHT22;2238;50.180;9.230;2023-03-14T03:04:25;10.30;99.90
4451;DHT22;2238;50.180;9.230;2023-03-14T03:07:25;10.20;99.90
4451;DHT22;2238;50.180;9.230;2023-03-14T03:10:27;11.00;99.90
4451;DHT22;2238;50.180;9.230;2023-03-14T03:13:28;10.30;99.90
4451;DHT22;2238;50.180;9.230;2023-03-14T03:16:28;10.30;99.90
4451;DHT22;2238;50.180;9.230;2023-03-14T03:19:29;10.30;99.90
4451;DHT22;2238;50.180;9.230;2023-03-14T03:22:30;10.20;99.90
4451;DHT22;2238;50.180;9.230;2023-03-14T03:25:30;10.20;99.90
4451;DHT22;2238;50.180;9.230;2023-03-14T03:28:31;10.20;99.90
4451;DHT22;2238;50.180;9.230;2023-03-14T03:31:32;10.20;99.90
4451;DHT22;2238;50.180;9.230;2023-03-14T03:34:33;10.20;99.90
4451;DHT22;2238;50.180;9.230;2023-03-14T03:37:33;10.20;99.90
4451;DHT22;2238;50.180;9.230;2023-03-14T03:40:34;10.20;99.90
4451;DHT22;2238;50.180;9.230;2023-03-14T03:43:35;10.10;99.90
4451;DHT22;2238;50.180;9.230;2023-03-14T03:46:35;10.30;99.90
4451;DHT22;2238;50.180;9.230;2023-03-14T03:49:36;10.10;99.90
4451;DHT22;2238;50.180;9.230;2023-03-14T03:52:36;10.20;99.90
4451;DHT22;2238;50.180;9.230;2023-03-14T03:55:37;10.00;99.90
4451;DHT22;2238;50.180;9.230;2023-03-14T03:58:38;10.10;99.90
4451;DHT22;2238;50.180;9.230;2023-03-14T04:01:39;10.10;99.90
4451;DHT22;2238;50.180;9.230;2023-03-14T04:04:39;10.40;99.90
4451;DHT22;2238;50.180;9.230;2023-03-14T04:07:40;10.10;99.90
4451;DHT22;2238;50.180;9.230;2023-03-14T04:10:41;10.00;99.90
4451;DHT22;2238;50.180;9.230;2023-03-14T04:13:41;10.00;99.90
4451;DHT22;2238;50.180;9.230;2023-03-14T04:16:42;10.10;99.90
4451;DHT22;2238;50.180;9.230;2023-03-14T04:19:42;10.10;99.90
4451;DHT22;2238;50.180;9.230;2023-03-14T04:22:43;10.00;99.90
4451;DHT22;2238;50.180;9.230;2023-03-14T04:25:43;10.00;99.90
4451;DHT22;2238;50.180;9.230;2023-03-14T04:28:44;10.10;99.90
4451;DHT22;2238;50.180;9.230;2023-03-14T04:31:44;9.80;99.90
4451;DHT22;2238;50.180;9.230;2023-03-14T04:34:45;9.90;99.90
4451;DHT22;2238;50.180;9.230;2023-03-14T04:37:46;9.90;99.90
4451;DHT22;2238;50.180;9.230;2023-03-14T04:40:49;11.60;99.90
4451;DHT22;2238;50.180;9.230;2023-03-14T04:43:50;9.90;99.90
4451;DHT22;2238;50.180;9.230;2023-03-14T04:46:50;9.90;99.90
4451;DHT22;2238;50.180;9.230;2023-03-14T04:49:51;9.90;99.90
4451;DHT22;2238;50.180;9.230;2023-03-14T04:52:52;9.90;99.90
4451;DHT22;2238;50.180;9.230;2023-03-14T04:55:54;9.90;99.90
4451;DHT22;2238;50.180;9.230;2023-03-14T04:58:55;9.80;99.90
4451;DHT22;2238;50.180;9.230;2023-03-14T05:01:55;9.90;99.90
4451;DHT22;2238;50.180;9.230;2023-03-14T05:04:56;9.90;99.90
4451;DHT22;2238;50.180;9.230;2023-03-14T05:07:56;9.90;99.90
4451;DHT22;2238;50.180;9.230;2023-03-14T05:10:57;10.00;99.90
4451;DHT22;2238;50.180;9.230;2023-03-14T05:13:58;9.90;99.90
4451;DHT22;2238;50.180;9.230;2023-03-14T05:16:58;9.90;99.90
4451;DHT22;2238;50.180;9.230;2023-03-14T05:19:59;9.90;99.90
4451;DHT22;2238;50.180;9.230;2023-03-14T05:22:59;10.20;99.90
4451;DHT22;2238;50.180;9.230;2023-03-14T05:26:00;10.10;99.90
4451;DHT22;2238;50.180;9.230;2023-03-14T05:29:01;9.90;99.90
4451;DHT22;2238;50.180;9.230;2023-03-14T05:32:01;9.90;99.90
4451;DHT22;2238;50.180;9.230;2023-03-14T05:35:02;10.00;99.90
4451;DHT22;2238;50.180;9.230;2023-03-14T05:38:03;10.00;99.90
4451;DHT22;2238;50.180;9.230;2023-03-14T05:41:03;10.00;99.90
4451;DHT22;2238;50.180;9.230;2023-03-14T05:44:04;9.90;99.90
4451;DHT22;2238;50.180;9.230;2023-03-14T05:47:05;9.90;99.90
4451;DHT22;2238;50.180;9.230;2023-03-14T05:50:05;9.90;99.90
4451;DHT22;2238;50.180;9.230;2023-03-14T05:53:06;9.90;99.90
4451;DHT22;2238;50.180;9.230;2023-03-14T05:56:07;9.90;99.90
4451;DHT22;2238;50.180;9.230;2023-03-14T05:59:08;10.00;99.90
4451;DHT22;2238;50.180;9.230;2023-03-14T06:02:09;10.00;99.90
4451;DHT22;2238;50.180;9.230;2023-03-14T06:05:09;9.90;99.90
4451;DHT22;2238;50.180;9.230;2023-03-14T06:08:10;9.90;99.90
4451;DHT22;2238;50.180;9.230;2023-03-14T06:11:11;9.90;99.90
4451;DHT22;2238;50.180;9.230;2023-03-14T06:14:11;9.90;99.90
4451;DHT22;2238;50.180;9.230;2023-03-14T06:17:12;9.90;99.90
4451;DHT22;2238;50.180;9.230;2023-03-14T06:20:13;9.90;99.90
4451;DHT22;2238;50.180;9.230;2023-03-14T06:23:13;9.90;99.90
4451;DHT22;2238;50.180;9.230;2023-03-14T06:26:14;9.80;99.90
4451;DHT22;2238;50.180;9.230;2023-03-14T06:29:14;9.80;99.90
4451;DHT22;2238;50.180;9.230;2023-03-14T06:32:15;9.70;99.90
4451;DHT22;2238;50.180;9.230;2023-03-14T06:35:16;9.60;99.90
4451;DHT22;2238;50.180;9.230;2023-03-14T06:38:16;9.90;99.90
4451;DHT22;2238;50.180;9.230;2023-03-14T06:41:17;9.40;99.90
4451;DHT22;2238;50.180;9.230;2023-03-14T06:44:17;9.20;99.90
4451;DHT22;2238;50.180;9.230;2023-03-14T06:47:18;9.20;99.90
4451;DHT22;2238;50.180;9.230;2023-03-14T06:50:19;9.20;99.90
4451;DHT22;2238;50.180;9.230;2023-03-14T06:53:19;9.10;99.90
4451;DHT22;2238;50.180;9.230;2023-03-14T06:56:20;9.10;99.90
4451;DHT22;2238;50.180;9.230;2023-03-14T06:59:20;9.10;99.90
4451;DHT22;2238;50.180;9.230;2023-03-14T07:02:23;9.00;99.90
4451;DHT22;2238;50.180;9.230;2023-03-14T07:05:23;7.20;99.90
4451;DHT22;2238;50.180;9.230;2023-03-14T07:08:24;9.00;99.90
4451;DHT22;2238;50.180;9.230;2023-03-14T07:11:24;9.00;99.90
4451;DHT22;2238;50.180;9.230;2023-03-14T07:14:25;9.00;99.90
4451;DHT22;2238;50.180;9.230;2023-03-14T07:17:25;9.00;99.90
4451;DHT22;2238;50.180;9.230;2023-03-14T07:20:26;9.00;99.90
4451;DHT22;2238;50.180;9.230;2023-03-14T07:23:27;9.10;99.90
4451;DHT22;2238;50.180;9.230;2023-03-14T07:26:27;9.10;99.90
4451;DHT22;2238;50.180;9.230;2023-03-14T07:29:28;9.20;99.90
4451;DHT22;2238;50.180;9.230;2023-03-14T07:32:28;9.20;99.90
4451;DHT22;2238;50.180;9.230;2023-03-14T07:35:29;9.20;99.90
4451;DHT22;2238;50.180;9.230;2023-03-14T07:38:30;9.20;99.90
4451;DHT22;2238;50.180;9.230;2023-03-14T07:41:31;9.20;99.90
4451;DHT22;2238;50.180;9.230;2023-03-14T07:44:33;9.20;99.90
4451;DHT22;2238;50.180;9.230;2023-03-14T07:47:33;9.30;99.90
4451;DHT22;2238;50.180;9.230;2023-03-14T07:50:34;9.30;99.90
4451;DHT22;2238;50.180;9.230;2023-03-14T07:53:34;9.30;99.90
4451;DHT22;2238;50.180;9.230;2023-03-14T07:56:35;9.30;99.90
4451;DHT22;2238;50.180;9.230;2023-03-14T07:59:35;9.20;99.90
4451;DHT22;2238;50.180;9.230;2023-03-14T08:02:36;9.30;99.90
4451;DHT22;2238;50.180;9.230;2023-03-14T08:05:37;9.30;99.90
4451;DHT22;2238;50.180;9.230;2023-03-14T08:08:38;9.30;99.90
4451;DHT22;2238;50.180;9.230;2023-03-14T08:11:39;9.30;99.90
4451;DHT22;2238;50.180;9.230;2023-03-14T08:14:39;9.30;99.90
4451;DHT22;2238;50.180;9.230;2023-03-14T08:17:40;9.30;99.90
4451;DHT22;2238;50.180;9.230;2023-03-14T08:20:40;9.30;99.90
4451;DHT22;2238;50.180;9.230;2023-03-14T08:23:41;11.00;99.90
4451;DHT22;2238;50.180;9.230;2023-03-14T08:26:41;9.40;99.90
4451;DHT22;2238;50.180;9.230;2023-03-14T08:29:42;9.40;99.90
4451;DHT22;2238;50.180;9.230;2023-03-14T08:32:43;9.50;99.90
4451;DHT22;2238;50.180;9.230;2023-03-14T08:35:44;9.40;99.90
4451;DHT22;2238;50.180;9.230;2023-03-14T08:38:45;9.50;99.90
4451;DHT22;2238;50.180;9.230;2023-03-14T08:41:45;9.50;99.90
4451;DHT22;2238;50.180;9.230;2023-03-14T08:44:46;9.60;99.90
4451;DHT22;2238;50.180;9.230;2023-03-14T08:47:46;7.10;99.90
4451;DHT22;2238;50.180;9.230;2023-03-14T08:50:47;9.60;99.90
4451;DHT22;2238;50.180;9.230;2023-03-14T08:53:48;9.70;99.90
4451;DHT22;2238;50.180;9.230;2023-03-14T08:56:48;9.70;99.90
4451;DHT22;2238;50.180;9.230;2023-03-14T08:59:49;9.70;99.90
4451;DHT22;2238;50.180;9.230;2023-03-14T09:02:50;9.80;99.90
4451;DHT22;2238;50.180;9.230;2023-03-14T09:05:51;9.90;99.90
4451;DHT22;2238;50.180;9.230;2023-03-14T09:08:52;9.90;99.90
4451;DHT22;2238;50.180;9.230;2023-03-14T09:11:53;9.90;99.90
4451;DHT22;2238;50.180;9.230;2023-03-14T09:14:53;9.90;99.90
4451;DHT22;2238;50.180;9.230;2023-03-14T09:17:54;9.90;99.90
4451;DHT22;2238;50.180;9.230;2023-03-14T09:20:55;10.00;99.90
4451;DHT22;2238;50.180;9.230;2023-03-14T09:23:56;10.00;99.90
4451;DHT22;2238;50.180;9.230;2023-03-14T09:26:57;10.00;99.90
4451;DHT22;2238;50.180;9.230;2023-03-14T09:29:57;10.50;99.90
4451;DHT22;2238;50.180;9.230;2023-03-14T09:32:58;10.10;99.90
4451;DHT22;2238;50.180;9.230;2023-03-14T09:35:59;11.60;99.90
4451;DHT22;2238;50.180;9.230;2023-03-14T09:39:00;10.30;99.90
4451;DHT22;2238;50.180;9.230;2023-03-14T09:42:03;10.10;99.90
4451;DHT22;2238;50.180;9.230;2023-03-14T09:45:11;10.40;99.90
4451;DHT22;2238;50.180;9.230;2023-03-14T09:48:36;10.60;99.90
4451;DHT22;2238;50.180;9.230;2023-03-14T09:51:36;10.70;99.90
4451;DHT22;2238;50.180;9.230;2023-03-14T09:54:41;11.00;99.90
4451;DHT22;2238;50.180;9.230;2023-03-14T09:57:44;13.60;99.90
4451;DHT22;2238;50.180;9.230;2023-03-14T10:00:52;10.90;99.90
4451;DHT22;2238;50.180;9.230;2023-03-14T10:03:58;13.20;99.90
4451;DHT22;2238;50.180;9.230;2023-03-14T10:07:00;11.10;99.90
4451;DHT22;2238;50.180;9.230;2023-03-14T10:10:13;12.00;99.90
4451;DHT22;2238;50.180;9.230;2023-03-14T10:13:21;11.10;99.90
4451;DHT22;2238;50.180;9.230;2023-03-14T10:16:29;11.00;99.90
4451;DHT22;2238;50.180;9.230;2023-03-14T10:19:32;10.70;99.90
4451;DHT22;2238;50.180;9.230;2023-03-14T10:22:34;13.50;99.90
4451;DHT22;2238;50.180;9.230;2023-03-14T10:25:36;10.80;99.90
4451;DHT22;2238;50.180;9.230;2023-03-14T10:28:42;10.70;99.90
4451;DHT22;2238;50.180;9.230;2023-03-14T10:32:03;10.60;99.90
4451;DHT22;2238;50.180;9.230;2023-03-14T10:35:24;10.60;99.90
4451;DHT22;2238;50.180;9.230;2023-03-14T10:38:30;10.50;99.90
4451;DHT22;2238;50.180;9.230;2023-03-14T10:41:31;12.60;99.90
4451;DHT22;2238;50.180;9.230;2023-03-14T10:44:34;10.50;99.90
4451;DHT22;2238;50.180;9.230;2023-03-14T10:47:35;10.50;99.90
4451;DHT22;2238;50.180;9.230;2023-03-14T10:50:36;11.40;99.90
4451;DHT22;2238;50.180;9.230;2023-03-14T10:53:46;10.50;99.90
4451;DHT22;2238;50.180;9.230;2023-03-14T10:56:57;10.50;99.90
4451;DHT22;2238;50.180;9.230;2023-03-14T10:59:58;12.70;99.90
4451;DHT22;2238;50.180;9.230;2023-03-14T11:03:03;10.40;99.90
4451;DHT22;2238;50.180;9.230;2023-03-14T11:06:23;11.60;99.90
4451;DHT22;2238;50.180;9.230;2023-03-14T11:12:59;10.50;99.90
4451;DHT22;2238;50.180;9.230;2023-03-14T11:22:41;10.10;99.90
4451;DHT22;2238;50.180;9.230;2023-03-14T11:26:16;10.00;99.90
4451;DHT22;2238;50.180;9.230;2023-03-14T11:29:42;10.00;99.90
4451;DHT22;2238;50.180;9.230;2023-03-14T11:33:13;9.90;99.90
4451;DHT22;2238;50.180;9.230;2023-03-14T11:36:21;9.70;99.90
4451;DHT22;2238;50.180;9.230;2023-03-14T11:39:25;11.00;99.90
4451;DHT22;2238;50.180;9.230;2023-03-14T11:42:26;9.70;99.90
4451;DHT22;2238;50.180;9.230;2023-03-14T11:45:39;9.80;99.90
4451;DHT22;2238;50.180;9.230;2023-03-14T11:48:45;11.70;99.90
4451;DHT22;2238;50.180;9.230;2023-03-14T11:51:58;10.00;99.90
4451;DHT22;2238;50.180;9.230;2023-03-14T11:55:10;9.60;99.90
4451;DHT22;2238;50.180;9.230;2023-03-14T11:58:40;9.80;99.90
4451;DHT22;2238;50.180;9.230;2023-03-14T12:02:03;9.80;99.90
4451;DHT22;2238;50.180;9.230;2023-03-14T12:08:56;10.70;99.90
4451;DHT22;2238;50.180;9.230;2023-03-14T12:12:00;9.80;99.90
4451;DHT22;2238;50.180;9.230;2023-03-14T12:15:04;9.80;99.90
4451;DHT22;2238;50.180;9.230;2023-03-14T12:18:33;9.80;99.90
4451;DHT22;2238;50.180;9.230;2023-03-14T12:21:57;9.80;99.90
4451;DHT22;2238;50.180;9.230;2023-03-14T12:25:04;9.90;99.90
4451;DHT22;2238;50.180;9.230;2023-03-14T12:28:19;9.80;99.90
4451;DHT22;2238;50.180;9.230;2023-03-14T12:34:34;9.90;99.90
4451;DHT22;2238;50.180;9.230;2023-03-14T12:37:36;9.90;99.90
4451;DHT22;2238;50.180;9.230;2023-03-14T12:41:19;10.00;99.90
4451;DHT22;2238;50.180;9.230;2023-03-14T12:50:41;8.80;99.90
4451;DHT22;2238;50.180;9.230;2023-03-14T13:03:20;8.20;99.90
4451;DHT22;2238;50.180;9.230;2023-03-14T13:10:04;8.10;99.90
4451;DHT22;2238;50.180;9.230;2023-03-14T13:13:20;8.30;99.90
4451;DHT22;2238;50.180;9.230;2023-03-14T13:16:21;8.30;99.90
4451;DHT22;2238;50.180;9.230;2023-03-14T13:19:28;8.30;99.90
4451;DHT22;2238;50.180;9.230;2023-03-14T13:22:32;8.40;99.90
4451;DHT22;2238;50.180;9.230;2023-03-14T13:25:35;8.30;99.90
4451;DHT22;2238;50.180;9.230;2023-03-14T13:28:36;8.30;99.90
4451;DHT22;2238;50.180;9.230;2023-03-14T13:31:36;8.30;99.90
4451;DHT22;2238;50.180;9.230;2023-03-14T13:34:37;8.20;99.90
4451;DHT22;2238;50.180;9.230;2023-03-14T13:37:39;8.20;99.90
4451;DHT22;2238;50.180;9.230;2023-03-14T13:40:43;8.20;99.90
4451;DHT22;2238;50.180;9.230;2023-03-14T13:43:44;8.20;99.90
4451;DHT22;2238;50.180;9.230;2023-03-14T13:46:45;8.20;99.90
4451;DHT22;2238;50.180;9.230;2023-03-14T13:49:46;8.20;99.90
4451;DHT22;2238;50.180;9.230;2023-03-14T13:52:55;8.20;99.90
4451;DHT22;2238;50.180;9.230;2023-03-14T13:55:56;8.20;99.90
4451;DHT22;2238;50.180;9.230;2023-03-14T13:58:57;8.20;99.90
4451;DHT22;2238;50.180;9.230;2023-03-14T14:02:04;8.30;99.90
4451;DHT22;2238;50.180;9.230;2023-03-14T14:05:09;8.40;99.90
4451;DHT22;2238;50.180;9.230;2023-03-14T14:08:12;8.40;99.90
4451;DHT22;2238;50.180;9.230;2023-03-14T14:12:00;8.50;99.90
4451;DHT22;2238;50.180;9.230;2023-03-14T14:18:00;8.60;99.90
4451;DHT22;2238;50.180;9.230;2023-03-14T14:21:02;8.70;99.90
4451;DHT22;2238;50.180;9.230;2023-03-14T14:24:03;8.70;99.90
4451;DHT22;2238;50.180;9.230;2023-03-14T14:27:17;8.80;99.90
4451;DHT22;2238;50.180;9.230;2023-03-14T14:33:20;8.70;99.90
4451;DHT22;2238;50.180;9.230;2023-03-14T14:36:45;8.80;99.90
4451;DHT22;2238;50.180;9.230;2023-03-14T14:39:52;8.70;99.90
4451;DHT22;2238;50.180;9.230;2023-03-14T14:42:54;8.50;99.90
4451;DHT22;2238;50.180;9.230;2023-03-14T14:45:55;8.20;99.90
4451;DHT22;2238;50.180;9.230;2023-03-14T14:49:06;7.90;99.90
4451;DHT22;2238;50.180;9.230;2023-03-14T14:52:10;7.70;99.90
4451;DHT22;2238;50.180;9.230;2023-03-14T14:55:20;7.70;99.90
4451;DHT22;2238;50.180;9.230;2023-03-14T14:58:34;7.70;99.90
4451;DHT22;2238;50.180;9.230;2023-03-14T15:01:38;7.70;99.90
4451;DHT22;2238;50.180;9.230;2023-03-14T15:04:42;7.70;99.90
4451;DHT22;2238;50.180;9.230;2023-03-14T15:07:42;7.70;99.90
4451;DHT22;2238;50.180;9.230;2023-03-14T15:10:43;7.70;99.90
4451;DHT22;2238;50.180;9.230;2023-03-14T15:13:44;7.50;99.90
4451;DHT22;2238;50.180;9.230;2023-03-14T15:16:44;7.50;99.90
4451;DHT22;2238;50.180;9.230;2023-03-14T15:19:45;7.50;99.90
4451;DHT22;2238;50.180;9.230;2023-03-14T15:22:47;7.50;99.90
4451;DHT22;2238;50.180;9.230;2023-03-14T15:25:48;7.50;99.90
4451;DHT22;2238;50.180;9.230;2023-03-14T15:28:51;7.50;99.90
4451;DHT22;2238;50.180;9.230;2023-03-14T15:31:52;7.40;99.90
4451;DHT22;2238;50.180;9.230;2023-03-14T15:34:55;7.40;99.90
4451;DHT22;2238;50.180;9.230;2023-03-14T15:37:56;7.30;99.90
4451;DHT22;2238;50.180;9.230;2023-03-14T15:40:57;7.40;99.90
4451;DHT22;2238;50.180;9.230;2023-03-14T15:43:57;7.30;99.90
4451;DHT22;2238;50.180;9.230;2023-03-14T15:46:58;7.20;99.90
4451;DHT22;2238;50.180;9.230;2023-03-14T15:49:58;7.20;99.90
4451;DHT22;2238;50.180;9.230;2023-03-14T15:52:59;7.20;99.90
4451;DHT22;2238;50.180;9.230;2023-03-14T15:56:00;7.20;99.90
4451;DHT22;2238;50.180;9.230;2023-03-14T15:59:00;7.20;99.90
4451;DHT22;2238;50.180;9.230;2023-03-14T16:02:01;7.00;99.90
4451;DHT22;2238;50.180;9.230;2023-03-14T16:05:01;7.00;99.90
4451;DHT22;2238;50.180;9.230;2023-03-14T16:08:02;6.90;99.90
4451;DHT22;2238;50.180;9.230;2023-03-14T16:11:03;7.00;99.90
4451;DHT22;2238;50.180;9.230;2023-03-14T16:14:05;6.70;99.90
4451;DHT22;2238;50.180;9.230;2023-03-14T16:17:06;6.40;99.90
4451;DHT22;2238;50.180;9.230;2023-03-14T16:20:11;6.20;99.90
4451;DHT22;2238;50.180;9.230;2023-03-14T16:23:11;6.10;99.90
4451;DHT22;2238;50.180;9.230;2023-03-14T16:26:17;5.80;99.90
4451;DHT22;2238;50.180;9.230;2023-03-14T16:29:18;5.70;99.90
4451;DHT22;2238;50.180;9.230;2023-03-14T16:32:19;5.60;99.90
4451;DHT22;2238;50.180;9.230;2023-03-14T16:35:19;5.70;99.90
4451;DHT22;2238;50.180;9.230;2023-03-14T16:38:21;5.60;99.90
4451;DHT22;2238;50.180;9.230;2023-03-14T16:41:21;5.70;99.90
4451;DHT22;2238;50.180;9.230;2023-03-14T16:44:22;5.80;99.90
4451;DHT22;2238;50.180;9.230;2023-03-14T16:47:23;5.70;99.90
4451;DHT22;2238;50.180;9.230;2023-03-14T16:50:24;5.70;99.90
4451;DHT22;2238;50.180;9.230;2023-03-14T16:53:25;5.60;99.90
4451;DHT22;2238;50.180;9.230;2023-03-14T16:56:28;5.60;99.90
4451;DHT22;2238;50.180;9.230;2023-03-14T16:59:29;5.70;99.90
4451;DHT22;2238;50.180;9.230;2023-03-14T17:02:29;5.70;99.90
4451;DHT22;2238;50.180;9.230;2023-03-14T17:05:31;5.70;99.90
4451;DHT22;2238;50.180;9.230;2023-03-14T17:08:32;5.70;99.90
4451;DHT22;2238;50.180;9.230;2023-03-14T17:11:33;5.80;99.90
4451;DHT22;2238;50.180;9.230;2023-03-14T17:14:34;6.50;99.90
4451;DHT22;2238;50.180;9.230;2023-03-14T17:17:34;5.70;99.90
4451;DHT22;2238;50.180;9.230;2023-03-14T17:20:35;5.60;99.90
4451;DHT22;2238;50.180;9.230;2023-03-14T17:23:36;5.60;99.90
4451;DHT22;2238;50.180;9.230;2023-03-14T17:26:36;5.60;99.90
4451;DHT22;2238;50.180;9.230;2023-03-14T17:29:37;5.60;99.90
4451;DHT22;2238;50.180;9.230;2023-03-14T17:32:37;5.70;99.90
4451;DHT22;2238;50.180;9.230;2023-03-14T17:35:38;5.70;99.90
4451;DHT22;2238;50.180;9.230;2023-03-14T17:38:39;5.70;99.90
4451;DHT22;2238;50.180;9.230;2023-03-14T17:41:39;5.70;99.90
4451;DHT22;2238;50.180;9.230;2023-03-14T17:44:40;5.70;99.90
4451;DHT22;2238;50.180;9.230;2023-03-14T17:47:41;5.70;99.90
4451;DHT22;2238;50.180;9.230;2023-03-14T17:50:41;5.70;99.90
4451;DHT22;2238;50.180;9.230;2023-03-14T17:53:42;5.40;99.90
4451;DHT22;2238;50.180;9.230;2023-03-14T17:56:43;4.80;99.90
4451;DHT22;2238;50.180;9.230;2023-03-14T17:59:43;4.10;99.90
4451;DHT22;2238;50.180;9.230;2023-03-14T18:02:44;4.10;99.90
4451;DHT22;2238;50.180;9.230;2023-03-14T18:05:45;4.00;99.90
4451;DHT22;2238;50.180;9.230;2023-03-14T18:08:45;4.00;99.90
4451;DHT22;2238;50.180;9.230;2023-03-14T18:11:46;4.10;99.90
4451;DHT22;2238;50.180;9.230;2023-03-14T18:14:47;3.70;99.90
4451;DHT22;2238;50.180;9.230;2023-03-14T18:17:48;4.00;99.90
4451;DHT22;2238;50.180;9.230;2023-03-14T18:20:50;4.30;99.90
4451;DHT22;2238;50.180;9.230;2023-03-14T18:23:52;4.40;99.90
4451;DHT22;2238;50.180;9.230;2023-03-14T18:26:53;4.50;99.90
4451;DHT22;2238;50.180;9.230;2023-03-14T18:29:53;4.70;99.90
4451;DHT22;2238;50.180;9.230;2023-03-14T18:32:54;4.80;99.90
4451;DHT22;2238;50.180;9.230;2023-03-14T18:35:54;4.70;99.90
4451;DHT22;2238;50.180;9.230;2023-03-14T18:38:55;4.70;99.90
4451;DHT22;2238;50.180;9.230;2023-03-14T18:41:56;4.60;99.90
4451;DHT22;2238;50.180;9.230;2023-03-14T18:44:56;4.40;99.90
4451;DHT22;2238;50.180;9.230;2023-03-14T18:47:57;4.40;99.90
4451;DHT22;2238;50.180;9.230;2023-03-14T18:50:58;4.20;99.90
4451;DHT22;2238;50.180;9.230;2023-03-14T18:53:59;4.30;99.90
4451;DHT22;2238;50.180;9.230;2023-03-14T18:57:00;4.20;99.90
4451;DHT22;2238;50.180;9.230;2023-03-14T19:00:01;4.10;99.90
4451;DHT22;2238;50.180;9.230;2023-03-14T19:03:02;4.20;99.90
4451;DHT22;2238;50.180;9.230;2023-03-14T19:06:07;4.40;99.90
4451;DHT22;2238;50.180;9.230;2023-03-14T19:09:12;4.50;99.90
4451;DHT22;2238;50.180;9.230;2023-03-14T19:12:14;4.50;99.90
4451;DHT22;2238;50.180;9.230;2023-03-14T19:15:16;4.70;99.90
4451;DHT22;2238;50.180;9.230;2023-03-14T19:18:17;4.50;99.90
4451;DHT22;2238;50.180;9.230;2023-03-14T19:24:28;4.70;99.90
4451;DHT22;2238;50.180;9.230;2023-03-14T19:27:29;4.70;99.90
4451;DHT22;2238;50.180;9.230;2023-03-14T19:30:30;4.40;99.90
4451;DHT22;2238;50.180;9.230;2023-03-14T19:33:31;4.40;99.90
4451;DHT22;2238;50.180;9.230;2023-03-14T19:36:34;4.40;99.90
4451;DHT22;2238;50.180;9.230;2023-03-14T19:39:35;4.70;99.90
4451;DHT22;2238;50.180;9.230;2023-03-14T19:42:35;4.70;99.90
4451;DHT22;2238;50.180;9.230;2023-03-14T19:45:36;4.70;99.90
4451;DHT22;2238;50.180;9.230;2023-03-14T19:48:37;4.50;99.90
4451;DHT22;2238;50.180;9.230;2023-03-14T19:51:37;4.60;99.90
4451;DHT22;2238;50.180;9.230;2023-03-14T19:54:38;4.70;99.90
4451;DHT22;2238;50.180;9.230;2023-03-14T19:57:40;4.50;99.90
4451;DHT22;2238;50.180;9.230;2023-03-14T20:00:41;4.60;99.90
4451;DHT22;2238;50.180;9.230;2023-03-14T20:03:44;4.70;99.90
4451;DHT22;2238;50.180;9.230;2023-03-14T20:06:45;4.80;99.90
4451;DHT22;2238;50.180;9.230;2023-03-14T20:09:46;4.50;99.90
4451;DHT22;2238;50.180;9.230;2023-03-14T20:12:46;4.60;99.90
4451;DHT22;2238;50.180;9.230;2023-03-14T20:15:47;4.60;99.90
4451;DHT22;2238;50.180;9.230;2023-03-14T20:18:47;4.90;99.90
4451;DHT22;2238;50.180;9.230;2023-03-14T20:21:48;4.90;99.90
4451;DHT22;2238;50.180;9.230;2023-03-14T20:24:49;4.80;99.90
4451;DHT22;2238;50.180;9.230;2023-03-14T20:27:51;4.90;99.90
4451;DHT22;2238;50.180;9.230;2023-03-14T20:30:52;4.80;99.90
4451;DHT22;2238;50.180;9.230;2023-03-14T20:33:53;4.80;99.90
4451;DHT22;2238;50.180;9.230;2023-03-14T20:36:54;4.40;99.90
4451;DHT22;2238;50.180;9.230;2023-03-14T20:39:54;4.30;99.90
4451;DHT22;2238;50.180;9.230;2023-03-14T20:42:55;4.10;99.90
4451;DHT22;2238;50.180;9.230;2023-03-14T20:45:57;3.50;99.90
4451;DHT22;2238;50.180;9.230;2023-03-14T20:48:58;3.50;99.90
4451;DHT22;2238;50.180;9.230;2023-03-14T20:52:00;3.50;99.90